Time;durP1;ratioP1;P1;durP2;ratioP2;P2;SDS_P1;SDS_P2;PMS_P1;PMS_P2;Temp;Humidity;BMP_temperature;BMP_pressure;BME280_temperature;BME280_humidity;BME280_pressure;Samples;Min_cycle;Max_cycle;Signal;HPM_P1;HPM_P2
2021/10/05 00:00:36;;;;;;;1.43;1.20;;;13.00;98.00;;;;;;5051329;28;20487;-71
2021/10/05 00:03:05;;;;;;;1.43;1.23;;;13.00;98.00;;;;;;5055369;28;20456;-71
2021/10/05 00:05:32;;;;;;;1.87;1.60;;;12.90;98.00;;;;;;5055392;28;20505;-71
2021/10/05 00:07:59;;;;;;;1.30;1.30;;;12.90;98.00;;;;;;5055235;28;20973;-72
2021/10/05 00:10:28;;;;;;;1.43;1.20;;;12.90;98.00;;;;;;5055216;28;20507;-71
2021/10/05 00:12:55;;;;;;;2.13;1.30;;;12.90;98.00;;;;;;5055126;28;20526;-71
2021/10/05 00:15:31;;;;;;;1.20;1.20;;;12.90;98.00;;;;;;5055249;28;20565;-71
2021/10/05 00:17:58;;;;;;;1.40;1.30;;;12.90;98.00;;;;;;5055002;28;20484;-71
2021/10/05 00:20:27;;;;;;;1.30;1.30;;;12.90;98.00;;;;;;5055140;28;20454;-72
2021/10/05 00:22:54;;;;;;;1.43;1.27;;;13.00;98.00;;;;;;5055261;28;20508;-70
2021/10/05 00:25:21;;;;;;;2.10;1.27;;;12.90;98.00;;;;;;5054798;28;20461;-71
2021/10/05 00:27:48;;;;;;;1.20;1.20;;;12.90;98.00;;;;;;5054895;28;20451;-70
2021/10/05 00:30:15;;;;;;;1.20;1.03;;;12.90;98.00;;;;;;5054823;28;20929;-71
2021/10/05 00:32:42;;;;;;;3.93;1.67;;;12.80;98.00;;;;;;5055108;28;20463;-70
2021/10/05 00:35:09;;;;;;;1.20;1.10;;;12.60;98.00;;;;;;5054605;28;20920;-70
2021/10/05 00:37:38;;;;;;;1.53;1.40;;;12.50;98.00;;;;;;5054219;28;20521;-70
2021/10/05 00:40:06;;;;;;;1.20;1.10;;;12.60;98.00;;;;;;5054443;28;20460;-72
2021/10/05 00:42:33;;;;;;;1.70;1.30;;;12.70;98.00;;;;;;5054976;28;20514;-70
2021/10/05 00:45:00;;;;;;;1.50;1.40;;;12.70;98.00;;;;;;5054817;28;20503;-70
2021/10/05 00:47:27;;;;;;;1.30;1.27;;;12.80;98.00;;;;;;5054494;28;20514;-70
2021/10/05 00:49:55;;;;;;;1.40;1.20;;;12.70;98.00;;;;;;5054880;28;20509;-71
2021/10/05 00:52:22;;;;;;;1.50;1.10;;;12.80;98.00;;;;;;5054658;28;20482;-70
2021/10/05 00:54:50;;;;;;;1.50;1.40;;;12.80;98.00;;;;;;5054809;28;20448;-71
2021/10/05 00:57:18;;;;;;;1.20;1.10;;;12.90;98.00;;;;;;5054422;28;21027;-70
2021/10/05 00:59:44;;;;;;;1.27;1.23;;;12.90;98.00;;;;;;5054787;28;20484;-70
2021/10/05 01:02:13;;;;;;;1.80;1.50;;;12.90;98.00;;;;;;5054518;28;20554;-72
2021/10/05 01:04:42;;;;;;;1.50;1.20;;;12.90;98.00;;;;;;5054420;28;20867;-71
2021/10/05 01:07:11;;;;;;;1.50;1.40;;;12.90;98.00;;;;;;5054280;28;20454;-70
2021/10/05 01:09:38;;;;;;;1.20;1.07;;;12.90;98.00;;;;;;5054055;28;20556;-70
2021/10/05 01:12:08;;;;;;;1.90;1.53;;;12.90;98.00;;;;;;5053317;28;20491;-70
2021/10/05 01:14:35;;;;;;;1.30;1.20;;;12.90;98.00;;;;;;5053908;28;20796;-70
2021/10/05 01:17:04;;;;;;;1.73;1.20;;;12.90;98.00;;;;;;5053836;28;20572;-71
2021/10/05 01:19:31;;;;;;;1.20;1.10;;;12.90;98.00;;;;;;5053846;28;20455;-70
2021/10/05 01:22:00;;;;;;;1.60;1.00;;;12.80;98.00;;;;;;5053865;28;20515;-72
2021/10/05 01:24:27;;;;;;;1.30;1.30;;;12.90;98.00;;;;;;5053674;28;20828;-71
2021/10/05 01:26:55;;;;;;;1.20;1.20;;;12.90;98.00;;;;;;5053860;28;20458;-71
2021/10/05 01:29:25;;;;;;;1.40;1.10;;;12.90;98.00;;;;;;5053761;28;20888;-70
2021/10/05 01:31:54;;;;;;;1.67;1.27;;;12.90;98.00;;;;;;5053559;28;20496;-70
2021/10/05 01:34:22;;;;;;;3.67;1.30;;;12.90;98.00;;;;;;5053578;28;20486;-70
2021/10/05 01:36:51;;;;;;;2.00;1.50;;;12.90;98.00;;;;;;5053544;28;20457;-70
2021/10/05 01:39:24;;;;;;;1.40;1.17;;;12.90;98.00;;;;;;5053530;28;20548;-70
2021/10/05 01:41:55;;;;;;;2.50;1.33;;;13.00;98.00;;;;;;5053579;28;20487;-70
2021/10/05 01:44:22;;;;;;;1.30;1.23;;;12.90;98.00;;;;;;5053479;28;20491;-73
2021/10/05 01:46:50;;;;;;;1.20;1.00;;;12.90;98.00;;;;;;5053410;28;20513;-71
2021/10/05 01:49:19;;;;;;;1.30;1.20;;;12.90;98.00;;;;;;5053461;28;20454;-71
2021/10/05 01:51:47;;;;;;;1.30;1.23;;;12.90;98.00;;;;;;5053372;28;20462;-71
2021/10/05 01:54:14;;;;;;;1.80;1.70;;;12.90;98.00;;;;;;5053520;28;20518;-71
2021/10/05 01:56:43;;;;;;;1.60;1.13;;;12.90;98.00;;;;;;5053408;28;20512;-71
2021/10/05 01:59:11;;;;;;;1.70;1.17;;;13.00;98.00;;;;;;5053237;28;20539;-70
2021/10/05 02:01:39;;;;;;;2.43;1.40;;;12.90;98.00;;;;;;5053176;28;20458;-71
2021/10/05 02:04:07;;;;;;;1.57;1.20;;;13.00;98.00;;;;;;5053370;28;20465;-70
2021/10/05 02:06:35;;;;;;;1.40;1.40;;;12.90;98.00;;;;;;5053176;28;20452;-71
2021/10/05 02:09:05;;;;;;;1.40;1.10;;;12.80;98.00;;;;;;5053186;28;20457;-71
2021/10/05 02:11:33;;;;;;;1.60;1.40;;;12.70;98.00;;;;;;5053255;28;20459;-70
2021/10/05 02:14:02;;;;;;;1.67;1.10;;;12.70;98.00;;;;;;5053195;28;20516;-70
2021/10/05 02:16:29;;;;;;;2.10;1.57;;;12.70;98.00;;;;;;5053133;28;20463;-72
2021/10/05 02:18:56;;;;;;;1.40;1.10;;;12.70;98.00;;;;;;5053183;28;20559;-71
2021/10/05 02:21:23;;;;;;;1.30;1.20;;;12.80;98.00;;;;;;5052804;28;20450;-71
2021/10/05 02:26:35;;;;;;;1.40;1.23;;;12.80;98.00;;;;;;5053126;28;20468;-71
2021/10/05 02:29:04;;;;;;;1.20;1.00;;;12.90;98.00;;;;;;5052562;28;20479;-71
2021/10/05 02:31:31;;;;;;;1.70;1.60;;;12.90;98.00;;;;;;5052682;28;21077;-70
2021/10/05 02:33:58;;;;;;;1.20;1.20;;;13.00;98.00;;;;;;5052518;28;21009;-71
2021/10/05 02:36:26;;;;;;;1.20;1.10;;;12.80;98.00;;;;;;5052499;28;20515;-70
2021/10/05 02:38:53;;;;;;;1.50;1.10;;;12.80;98.00;;;;;;5051932;28;20530;-71
2021/10/05 02:41:21;;;;;;;1.50;1.50;;;12.70;98.00;;;;;;5052420;28;20949;-71
2021/10/05 02:43:48;;;;;;;3.30;1.40;;;12.80;98.00;;;;;;5052103;28;20488;-71
2021/10/05 02:46:17;;;;;;;1.20;1.10;;;12.70;98.00;;;;;;5051999;28;20547;-71
2021/10/05 02:48:44;;;;;;;1.43;1.20;;;12.60;98.00;;;;;;5052113;28;20540;-72
2021/10/05 02:51:11;;;;;;;1.20;1.00;;;12.60;98.00;;;;;;5052448;28;20997;-71
2021/10/05 02:53:38;;;;;;;1.53;1.40;;;12.70;98.00;;;;;;5052176;28;20457;-70
2021/10/05 02:56:05;;;;;;;1.30;1.20;;;12.80;98.00;;;;;;5052097;28;20869;-70
2021/10/05 02:58:34;;;;;;;1.30;1.10;;;12.80;98.00;;;;;;5051951;28;20521;-71
2021/10/05 03:01:01;;;;;;;1.77;1.37;;;12.90;98.00;;;;;;5034784;28;21003;-71
2021/10/05 03:03:29;;;;;;;1.50;1.33;;;12.80;98.00;;;;;;5051892;28;20458;-71
2021/10/05 03:05:56;;;;;;;1.40;1.27;;;13.00;98.00;;;;;;5052183;28;20465;-71
2021/10/05 03:08:25;;;;;;;1.20;1.07;;;13.00;98.00;;;;;;5052002;28;20457;-71
2021/10/05 03:10:52;;;;;;;1.40;1.30;;;13.00;98.00;;;;;;5051955;28;20991;-70
2021/10/05 03:13:19;;;;;;;1.20;1.00;;;12.90;98.00;;;;;;5051613;28;20983;-71
2021/10/05 03:15:47;;;;;;;2.07;1.80;;;13.00;98.00;;;;;;5051982;28;20455;-70
2021/10/05 03:18:14;;;;;;;1.30;1.20;;;13.00;98.00;;;;;;5051806;28;20871;-70
2021/10/05 03:20:43;;;;;;;1.23;1.10;;;13.00;98.00;;;;;;5051872;28;20497;-70
2021/10/05 03:23:10;;;;;;;1.70;1.53;;;12.90;98.00;;;;;;5051632;28;20552;-71
2021/10/05 03:25:37;;;;;;;3.00;1.20;;;12.90;98.00;;;;;;5051712;28;20510;-72
2021/10/05 03:28:04;;;;;;;1.77;1.33;;;12.90;98.00;;;;;;5051591;28;20500;-71
2021/10/05 03:30:31;;;;;;;1.93;1.33;;;13.00;98.00;;;;;;5051739;28;20544;-70
2021/10/05 03:32:58;;;;;;;1.40;1.30;;;13.00;98.00;;;;;;5051799;28;20510;-71
2021/10/05 03:35:25;;;;;;;1.47;1.20;;;12.80;98.00;;;;;;5051132;28;20521;-70
2021/10/05 03:37:54;;;;;;;1.87;1.23;;;12.80;98.00;;;;;;5051519;28;20485;-70
2021/10/05 03:40:21;;;;;;;1.50;1.40;;;12.80;98.00;;;;;;5051834;28;20978;-70
2021/10/05 03:42:49;;;;;;;2.10;1.27;;;12.80;98.00;;;;;;5051902;28;20460;-70
2021/10/05 03:45:16;;;;;;;2.33;1.57;;;12.90;98.00;;;;;;5051443;28;20461;-70
2021/10/05 03:47:43;;;;;;;1.93;1.30;;;12.90;98.00;;;;;;5051810;28;20538;-70
2021/10/05 03:50:11;;;;;;;1.40;1.30;;;13.00;98.00;;;;;;5051380;28;20875;-71
2021/10/05 03:52:40;;;;;;;1.30;1.30;;;12.90;98.00;;;;;;5051318;28;20514;-71
2021/10/05 03:55:10;;;;;;;1.50;1.40;;;12.90;98.00;;;;;;5051523;28;21046;-71
2021/10/05 03:57:39;;;;;;;1.30;1.20;;;13.00;98.00;;;;;;5051069;28;20530;-70
2021/10/05 04:00:07;;;;;;;4.43;1.37;;;13.00;98.00;;;;;;5051280;28;20528;-72
2021/10/05 04:02:34;;;;;;;2.10;1.60;;;12.90;98.00;;;;;;5051277;28;20955;-70
2021/10/05 04:05:02;;;;;;;1.80;1.30;;;12.80;98.00;;;;;;5051443;28;20508;-71
2021/10/05 04:07:29;;;;;;;1.30;1.20;;;12.70;98.00;;;;;;5051281;28;20518;-71
2021/10/05 04:09:56;;;;;;;2.37;1.40;;;12.70;98.00;;;;;;5051193;28;20486;-70
2021/10/05 04:12:24;;;;;;;1.60;1.30;;;12.80;98.00;;;;;;5050884;28;20501;-71
2021/10/05 04:14:51;;;;;;;1.30;1.20;;;12.80;98.00;;;;;;5051219;28;20624;-70
2021/10/05 04:17:18;;;;;;;3.50;1.43;;;12.80;98.00;;;;;;5051120;28;20466;-71
2021/10/05 04:19:45;;;;;;;1.97;1.30;;;12.90;98.00;;;;;;5051105;28;20575;-70
2021/10/05 04:22:12;;;;;;;1.20;1.10;;;13.00;98.00;;;;;;5051227;28;20509;-71
2021/10/05 04:24:40;;;;;;;1.70;1.30;;;12.90;98.00;;;;;;5050849;28;20511;-70
2021/10/05 04:27:10;;;;;;;1.47;1.40;;;12.90;98.00;;;;;;5051065;28;20510;-70
2021/10/05 04:29:40;;;;;;;1.33;1.30;;;12.90;98.00;;;;;;5051132;28;20939;-71
2021/10/05 04:32:08;;;;;;;2.53;1.27;;;12.90;98.00;;;;;;5051185;28;20459;-71
2021/10/05 04:34:35;;;;;;;1.10;1.00;;;12.90;98.00;;;;;;5051054;28;20492;-71
2021/10/05 04:37:03;;;;;;;1.47;1.27;;;12.90;98.00;;;;;;5051191;28;20455;-71
2021/10/05 04:39:30;;;;;;;1.20;1.10;;;13.00;98.00;;;;;;5050796;28;20717;-72
2021/10/05 04:41:57;;;;;;;2.17;1.50;;;13.00;98.00;;;;;;5050372;28;20458;-71
2021/10/05 04:44:24;;;;;;;1.97;1.43;;;13.00;98.00;;;;;;5033406;28;20450;-71
2021/10/05 04:46:52;;;;;;;1.33;1.20;;;12.90;98.00;;;;;;5051833;28;20839;-70
2021/10/05 04:49:19;;;;;;;1.20;1.20;;;12.90;98.00;;;;;;5054541;28;20455;-71
2021/10/05 04:51:46;;;;;;;1.40;1.30;;;13.00;98.00;;;;;;5054669;28;20460;-71
2021/10/05 04:54:13;;;;;;;2.43;1.77;;;13.00;98.00;;;;;;5036767;28;20465;-70
2021/10/05 04:56:40;;;;;;;1.20;1.00;;;13.10;98.00;;;;;;5054015;28;20862;-70
2021/10/05 04:59:07;;;;;;;1.60;1.50;;;13.20;98.00;;;;;;5053975;28;20568;-70
2021/10/05 05:01:34;;;;;;;1.30;1.13;;;13.10;98.00;;;;;;5055008;28;20450;-71
2021/10/05 05:04:03;;;;;;;1.43;1.23;;;13.00;98.00;;;;;;5054667;28;20535;-72
2021/10/05 05:06:30;;;;;;;2.10;1.30;;;13.00;98.00;;;;;;5054337;28;20473;-71
2021/10/05 05:08:57;;;;;;;1.87;1.57;;;12.90;98.00;;;;;;5054305;28;20504;-70
2021/10/05 05:11:24;;;;;;;2.23;1.50;;;12.90;98.00;;;;;;5054125;28;20956;-71
2021/10/05 05:13:51;;;;;;;1.87;1.57;;;12.90;98.00;;;;;;5054059;28;20500;-71
2021/10/05 05:16:18;;;;;;;2.80;1.90;;;13.00;98.00;;;;;;5054202;28;20806;-71
2021/10/05 05:18:46;;;;;;;1.50;1.43;;;12.90;98.00;;;;;;5053960;28;21033;-71
2021/10/05 05:21:15;;;;;;;2.20;1.17;;;13.10;98.00;;;;;;5054036;28;20461;-70
2021/10/05 05:23:42;;;;;;;1.30;1.30;;;13.10;98.00;;;;;;5054088;28;20895;-70
2021/10/05 05:26:09;;;;;;;1.60;1.50;;;13.10;98.00;;;;;;5053781;28;20465;-72
2021/10/05 05:28:36;;;;;;;3.83;2.07;;;13.20;98.00;;;;;;5053594;28;20460;-70
2021/10/05 05:31:03;;;;;;;2.80;1.60;;;13.20;98.00;;;;;;5053873;28;20824;-71
2021/10/05 05:33:30;;;;;;;1.50;1.40;;;13.10;98.00;;;;;;5053786;28;20551;-71
2021/10/05 05:35:57;;;;;;;1.57;1.57;;;13.10;98.00;;;;;;5053782;28;20462;-70
2021/10/05 05:38:26;;;;;;;1.40;1.20;;;13.00;98.00;;;;;;5053498;28;20483;-72
2021/10/05 05:40:53;;;;;;;2.37;1.33;;;12.90;98.00;;;;;;5053592;28;20504;-71
2021/10/05 05:43:20;;;;;;;1.30;1.30;;;12.90;98.00;;;;;;5053510;28;20527;-71
2021/10/05 05:45:47;;;;;;;1.70;1.50;;;13.00;98.00;;;;;;5053541;28;20494;-71
2021/10/05 05:48:14;;;;;;;1.43;1.30;;;13.00;98.00;;;;;;5053436;28;20543;-72
2021/10/05 05:50:42;;;;;;;1.30;1.30;;;13.00;98.00;;;;;;5053429;28;20493;-71
2021/10/05 05:53:10;;;;;;;1.63;1.33;;;13.00;98.00;;;;;;5053333;28;20538;-70
2021/10/05 05:55:38;;;;;;;3.80;1.70;;;13.10;98.00;;;;;;5053416;28;21019;-71
2021/10/05 05:58:12;;;;;;;1.37;1.20;;;13.10;98.00;;;;;;5052499;28;20499;-71
2021/10/05 06:00:39;;;;;;;1.20;1.00;;;13.00;98.00;;;;;;5052708;28;20504;-71
2021/10/05 06:03:07;;;;;;;1.20;1.10;;;13.00;98.00;;;;;;5052797;28;20461;-70
2021/10/05 06:05:34;;;;;;;2.53;1.60;;;13.00;98.00;;;;;;5052618;28;20454;-70
2021/10/05 06:08:01;;;;;;;1.37;1.30;;;13.00;98.00;;;;;;5052876;28;20460;-71
2021/10/05 06:10:29;;;;;;;1.40;1.27;;;13.10;98.00;;;;;;5052965;28;20523;-70
2021/10/05 06:12:57;;;;;;;1.87;1.20;;;13.10;98.00;;;;;;5052966;28;20464;-71
2021/10/05 06:15:26;;;;;;;1.20;1.10;;;13.10;98.00;;;;;;5053119;28;20471;-71
2021/10/05 06:17:53;;;;;;;1.20;1.10;;;13.00;98.00;;;;;;5052965;28;20456;-71
2021/10/05 06:20:22;;;;;;;1.20;1.13;;;13.00;98.00;;;;;;5053067;28;20651;-71
2021/10/05 06:22:50;;;;;;;1.50;1.50;;;13.10;98.00;;;;;;5053010;28;20491;-73
2021/10/05 06:25:20;;;;;;;1.30;1.20;;;13.10;98.00;;;;;;5053022;28;20508;-71
2021/10/05 06:27:47;;;;;;;1.20;1.10;;;13.10;98.00;;;;;;5053254;28;20490;-72
2021/10/05 06:30:17;;;;;;;1.30;1.03;;;13.10;98.00;;;;;;5052836;28;20483;-71
2021/10/05 06:32:47;;;;;;;1.30;1.27;;;13.20;98.00;;;;;;5052603;28;20450;-72
2021/10/05 06:35:14;;;;;;;1.57;1.30;;;13.20;98.00;;;;;;5035047;28;20469;-72
2021/10/05 06:37:41;;;;;;;1.33;1.13;;;13.30;98.00;;;;;;5052737;28;20468;-71
2021/10/05 06:40:09;;;;;;;1.53;1.10;;;13.30;98.00;;;;;;5052210;28;20892;-73
2021/10/05 06:42:36;;;;;;;2.30;1.60;;;13.30;98.00;;;;;;5052383;28;20512;-72
2021/10/05 06:45:05;;;;;;;1.20;1.00;;;13.40;98.00;;;;;;5052289;28;20458;-72
2021/10/05 06:47:34;;;;;;;1.40;1.30;;;13.30;98.00;;;;;;5052397;28;20997;-71
2021/10/05 06:50:02;;;;;;;2.07;1.50;;;13.30;98.00;;;;;;5052056;28;20515;-72
2021/10/05 06:52:30;;;;;;;3.07;1.70;;;13.30;98.00;;;;;;5052308;28;20804;-71
2021/10/05 06:54:57;;;;;;;1.30;1.10;;;13.40;98.00;;;;;;5051954;28;20461;-71
2021/10/05 06:57:24;;;;;;;1.70;1.60;;;13.30;98.00;;;;;;5052186;28;20563;-71
2021/10/05 06:59:51;;;;;;;1.30;1.30;;;13.30;98.00;;;;;;5051918;28;20486;-71
2021/10/05 07:02:18;;;;;;;1.47;1.00;;;13.20;98.00;;;;;;5052114;28;20530;-71
2021/10/05 07:04:47;;;;;;;2.17;1.63;;;13.30;98.00;;;;;;5052025;28;20469;-71
2021/10/05 07:07:14;;;;;;;1.63;1.40;;;13.30;98.00;;;;;;5051881;28;20458;-72
2021/10/05 07:09:41;;;;;;;1.20;1.10;;;13.30;98.00;;;;;;5051407;28;20494;-72
2021/10/05 07:12:08;;;;;;;1.87;1.10;;;13.30;98.00;;;;;;5050148;28;20948;-73
2021/10/05 07:14:35;;;;;;;2.00;1.43;;;13.30;98.00;;;;;;5054639;28;20519;-71
2021/10/05 07:17:03;;;;;;;1.30;1.10;;;13.20;98.00;;;;;;5056259;28;20517;-72
2021/10/05 07:19:30;;;;;;;1.40;1.30;;;13.30;98.00;;;;;;5066223;28;20492;-72
2021/10/05 07:22:00;;;;;;;1.20;0.97;;;13.40;98.00;;;;;;5058903;28;20473;-72
2021/10/05 07:24:27;;;;;;;3.93;1.60;;;13.50;98.00;;;;;;5057714;28;20451;-71
2021/10/05 07:26:54;;;;;;;2.17;1.30;;;13.50;98.00;;;;;;5052057;28;20460;-72
2021/10/05 07:29:21;;;;;;;1.27;1.10;;;13.60;98.00;;;;;;5056179;28;20515;-72
2021/10/05 07:31:50;;;;;;;1.50;1.30;;;13.70;98.00;;;;;;5058261;28;20485;-71
2021/10/05 07:34:17;;;;;;;1.20;1.20;;;13.70;98.00;;;;;;5067242;28;20480;-72
2021/10/05 07:36:44;;;;;;;1.77;1.60;;;13.80;98.00;;;;;;5059661;28;20532;-71
2021/10/05 07:39:13;;;;;;;3.00;1.90;;;13.80;98.00;;;;;;5066954;28;21081;-72
2021/10/05 07:41:43;;;;;;;1.50;1.20;;;13.80;98.00;;;;;;5051982;28;20484;-70
2021/10/05 07:44:10;;;;;;;1.20;1.10;;;13.70;98.00;;;;;;5066567;28;20935;-70
2021/10/05 07:46:42;;;;;;;1.20;1.20;;;13.90;98.00;;;;;;5059350;28;20515;-71
2021/10/05 07:49:09;;;;;;;2.03;1.50;;;13.90;98.00;;;;;;5059265;28;20466;-71
2021/10/05 07:51:36;;;;;;;1.33;1.10;;;14.00;98.00;;;;;;5054933;28;20471;-71
2021/10/05 07:54:05;;;;;;;2.10;1.93;;;13.90;98.00;;;;;;5047765;28;20447;-70
2021/10/05 07:56:41;;;;;;;1.70;1.10;;;13.90;98.00;;;;;;5050657;28;20453;-72
2021/10/05 07:59:08;;;;;;;1.30;1.30;;;13.90;98.00;;;;;;5057943;28;20561;-70
2021/10/05 08:01:37;;;;;;;1.47;1.30;;;14.10;98.00;;;;;;5057346;28;20481;-71
2021/10/05 08:04:05;;;;;;;1.73;1.63;;;14.30;98.00;;;;;;5051056;28;20451;-71
2021/10/05 08:06:32;;;;;;;2.73;1.63;;;14.20;98.00;;;;;;5050316;28;20460;-72
2021/10/05 08:08:59;;;;;;;1.57;1.40;;;14.20;98.00;;;;;;5066214;28;20454;-70
2021/10/05 08:11:26;;;;;;;1.70;1.47;;;14.30;98.00;;;;;;5053045;28;20517;-72
2021/10/05 08:13:55;;;;;;;5.00;1.93;;;14.40;98.00;;;;;;5058279;28;20492;-71
2021/10/05 08:16:30;;;;;;;1.57;1.53;;;14.40;98.00;;;;;;5057136;28;20527;-72
2021/10/05 08:18:57;;;;;;;1.30;1.20;;;14.40;98.00;;;;;;5050391;28;20453;-70
2021/10/05 08:21:24;;;;;;;1.40;1.33;;;14.40;98.00;;;;;;5049931;28;20538;-70
2021/10/05 08:23:52;;;;;;;2.00;1.50;;;14.50;98.00;;;;;;5053987;28;20887;-71
2021/10/05 08:26:19;;;;;;;1.70;1.53;;;14.50;98.00;;;;;;5062099;28;20994;-71
2021/10/05 08:28:46;;;;;;;1.57;1.50;;;14.30;98.00;;;;;;5071098;28;20489;-70
2021/10/05 08:31:16;;;;;;;1.30;1.27;;;14.10;98.00;;;;;;5063413;28;20508;-72
2021/10/05 08:33:43;;;;;;;1.60;1.50;;;14.00;98.00;;;;;;5053939;28;20457;-71
2021/10/05 08:36:10;;;;;;;2.00;1.23;;;14.10;98.00;;;;;;5061435;28;20500;-72
2021/10/05 08:38:40;;;;;;;1.83;1.40;;;14.10;98.00;;;;;;5054042;28;20486;-71
2021/10/05 08:41:07;;;;;;;1.40;1.23;;;14.10;98.00;;;;;;5060995;28;20815;-71
2021/10/05 08:43:35;;;;;;;1.30;1.20;;;14.20;98.00;;;;;;5068956;28;20507;-71
2021/10/05 08:46:04;;;;;;;1.50;1.37;;;14.00;98.00;;;;;;5062273;28;20461;-72
2021/10/05 08:48:33;;;;;;;1.20;1.20;;;13.90;98.00;;;;;;5063052;28;20495;-71
2021/10/05 08:51:00;;;;;;;1.70;1.30;;;13.90;98.00;;;;;;5053966;28;20478;-71
2021/10/05 08:53:28;;;;;;;1.87;1.57;;;13.90;98.00;;;;;;5060794;28;20477;-71
2021/10/05 08:55:56;;;;;;;1.50;1.30;;;13.90;98.00;;;;;;5069120;28;20585;-72
2021/10/05 08:58:23;;;;;;;1.70;1.20;;;14.00;98.00;;;;;;5060872;28;20510;-70
2021/10/05 09:00:50;;;;;;;1.23;1.07;;;14.00;98.00;;;;;;5037128;28;21028;-68
2021/10/05 09:03:22;;;;;;;1.50;1.33;;;14.00;98.00;;;;;;5068550;28;20456;-68
2021/10/05 09:05:51;;;;;;;1.43;1.37;;;13.90;98.00;;;;;;5070288;28;20889;-75
2021/10/05 09:08:22;;;;;;;1.43;1.30;;;13.90;98.00;;;;;;5061814;28;20511;-72
2021/10/05 09:10:53;;;;;;;1.50;1.30;;;13.80;98.00;;;;;;5043623;28;20459;-71
2021/10/05 09:13:31;;;;;;;1.80;1.50;;;13.90;98.00;;;;;;5053429;28;20450;-72
2021/10/05 09:15:58;;;;;;;1.40;1.33;;;13.80;98.00;;;;;;5061144;28;20465;-71
2021/10/05 09:18:25;;;;;;;1.20;1.07;;;13.70;98.00;;;;;;5060497;28;20470;-72
2021/10/05 09:20:54;;;;;;;1.67;1.57;;;13.80;98.00;;;;;;5061245;28;20574;-72
2021/10/05 09:23:21;;;;;;;1.87;1.50;;;13.90;98.00;;;;;;5070724;28;20463;-71
2021/10/05 09:25:51;;;;;;;2.50;1.37;;;14.10;98.00;;;;;;5061311;28;20556;-72
2021/10/05 09:28:20;;;;;;;1.40;1.20;;;14.20;98.00;;;;;;5069633;28;20542;-70
2021/10/05 09:30:59;;;;;;;1.40;1.20;;;14.30;98.00;;;;;;5060580;28;20531;-71
2021/10/05 09:33:28;;;;;;;1.40;1.17;;;14.50;98.00;;;;;;5053401;28;20467;-72
2021/10/05 09:35:56;;;;;;;1.73;1.33;;;14.80;98.00;;;;;;5034671;28;20459;-72
2021/10/05 09:38:26;;;;;;;1.93;1.40;;;14.80;98.00;;;;;;5061832;28;20459;-70
2021/10/05 09:40:59;;;;;;;1.63;1.50;;;15.00;98.00;;;;;;5068098;28;21253;-67
2021/10/05 09:43:27;;;;;;;1.50;1.30;;;15.00;98.00;;;;;;5058731;28;20459;-70
2021/10/05 09:46:08;;;;;;;1.30;1.20;;;15.00;98.00;;;;;;5061951;28;20523;-69
2021/10/05 09:48:41;;;;;;;1.60;1.13;;;14.90;98.00;;;;;;5064814;28;20464;-68
2021/10/05 09:51:22;;;;;;;1.50;1.30;;;14.90;98.00;;;;;;5036910;28;20957;-71
2021/10/05 09:53:52;;;;;;;2.23;1.50;;;14.80;98.00;;;;;;5054062;28;20478;-71
2021/10/05 09:56:20;;;;;;;1.40;1.30;;;14.80;98.00;;;;;;5065799;28;20467;-71
2021/10/05 09:58:48;;;;;;;1.57;1.20;;;14.90;98.00;;;;;;5067939;28;20886;-71
2021/10/05 10:01:15;;;;;;;1.63;1.53;;;14.80;98.00;;;;;;5069516;28;20487;-71
2021/10/05 10:03:43;;;;;;;2.27;1.40;;;14.80;98.00;;;;;;5060624;28;20482;-71
2021/10/05 10:06:11;;;;;;;2.40;1.43;;;14.70;98.00;;;;;;5054313;28;20492;-71
2021/10/05 10:08:40;;;;;;;1.30;1.20;;;14.70;98.00;;;;;;5042679;28;20496;-72
2021/10/05 10:11:09;;;;;;;1.90;1.40;;;14.80;98.00;;;;;;5051463;28;20525;-72
2021/10/05 10:13:36;;;;;;;1.50;1.40;;;14.90;98.00;;;;;;5065913;28;20462;-72
2021/10/05 10:16:03;;;;;;;1.30;1.20;;;15.50;98.00;;;;;;5044551;28;20482;-72
2021/10/05 10:18:31;;;;;;;1.57;1.37;;;16.00;98.00;;;;;;5052333;28;20473;-72
2021/10/05 10:21:07;;;;;;;1.30;1.20;;;16.40;98.00;;;;;;5065739;28;20503;-72
2021/10/05 10:23:36;;;;;;;3.00;1.67;;;16.90;98.00;;;;;;5044668;28;20488;-73
2021/10/05 10:26:06;;;;;;;1.20;1.20;;;17.10;98.00;;;;;;5057766;28;20465;-72
2021/10/05 10:28:37;;;;;;;1.70;1.50;;;17.20;98.00;;;;;;5068257;28;20468;-72
2021/10/05 10:31:07;;;;;;;1.30;1.20;;;17.10;98.00;;;;;;5053568;28;20515;-72
2021/10/05 10:33:44;;;;;;;1.93;1.50;;;16.70;98.00;;;;;;5059553;28;20865;-72
2021/10/05 10:36:13;;;;;;;1.30;1.20;;;16.60;98.00;;;;;;5060128;28;20461;-72
2021/10/05 10:38:42;;;;;;;1.40;1.40;;;16.50;98.00;;;;;;5059466;28;20526;-73
2021/10/05 10:41:22;;;;;;;1.77;1.60;;;16.60;98.00;;;;;;5068942;28;20499;-74
2021/10/05 10:43:54;;;;;;;1.20;1.20;;;16.80;98.00;;;;;;5052960;28;20496;-70
2021/10/05 10:46:27;;;;;;;2.77;2.00;;;17.10;98.00;;;;;;5042046;28;20496;-71
2021/10/05 10:48:55;;;;;;;1.80;1.53;;;17.30;98.00;;;;;;5059194;28;20524;-73
2021/10/05 10:51:27;;;;;;;2.30;1.20;;;17.60;98.00;;;;;;5032098;28;20456;-72
2021/10/05 10:53:56;;;;;;;1.30;1.20;;;17.70;98.00;;;;;;5059767;28;20492;-71
2021/10/05 10:56:36;;;;;;;1.20;1.00;;;17.90;98.00;;;;;;5062559;28;20511;-71
2021/10/05 10:59:05;;;;;;;1.30;1.17;;;17.90;98.00;;;;;;5038096;28;20496;-72
2021/10/05 11:01:38;;;;;;;1.30;1.23;;;17.90;98.00;;;;;;5064397;28;20496;-73
2021/10/05 11:04:06;;;;;;;1.50;1.13;;;18.00;98.00;;;;;;5053805;28;20560;-72
2021/10/05 11:06:33;;;;;;;1.77;1.40;;;17.80;98.00;;;;;;5051879;28;20516;-73
2021/10/05 11:09:02;;;;;;;1.20;1.10;;;17.80;98.00;;;;;;5063419;28;20507;-72
2021/10/05 11:11:32;;;;;;;1.77;1.30;;;17.80;98.00;;;;;;5063077;28;20984;-72
2021/10/05 11:14:09;;;;;;;1.67;1.30;;;17.80;98.00;;;;;;5056332;28;20460;-73
2021/10/05 11:16:39;;;;;;;1.20;1.10;;;17.80;98.00;;;;;;5043829;28;20461;-71
2021/10/05 11:19:09;;;;;;;1.40;1.23;;;17.70;98.00;;;;;;5051500;28;20963;-72
2021/10/05 11:21:38;;;;;;;1.33;1.10;;;17.50;98.00;;;;;;5047896;28;20485;-71
2021/10/05 11:24:06;;;;;;;1.30;1.10;;;17.30;98.00;;;;;;5068298;28;20552;-71
2021/10/05 11:26:35;;;;;;;1.40;1.20;;;17.10;98.00;;;;;;5067507;28;20461;-68
2021/10/05 11:29:04;;;;;;;1.30;1.13;;;17.20;98.00;;;;;;5067303;28;20461;-69
2021/10/05 11:31:46;;;;;;;1.30;1.10;;;17.10;98.00;;;;;;5058451;28;20906;-72
2021/10/05 11:34:13;;;;;;;1.20;1.03;;;16.80;98.00;;;;;;5058725;28;20544;-71
2021/10/05 11:36:41;;;;;;;1.40;1.27;;;16.70;98.00;;;;;;5041852;28;20464;-71
2021/10/05 11:39:18;;;;;;;1.20;1.20;;;16.70;98.00;;;;;;5058800;28;20460;-70
2021/10/05 11:41:46;;;;;;;1.20;1.10;;;16.70;98.00;;;;;;5067440;28;21016;-73
2021/10/05 11:44:18;;;;;;;1.20;1.10;;;16.70;98.00;;;;;;5059450;28;20516;-71
2021/10/05 11:46:57;;;;;;;1.40;1.30;;;16.80;98.00;;;;;;5067552;28;20452;-71
2021/10/05 11:49:25;;;;;;;1.93;1.40;;;16.80;98.00;;;;;;5055673;28;20526;-71
2021/10/05 11:51:57;;;;;;;1.20;1.03;;;16.80;98.00;;;;;;5066132;28;20460;-72
2021/10/05 11:54:26;;;;;;;1.30;1.10;;;16.80;98.00;;;;;;5052908;28;20468;-71
2021/10/05 11:56:55;;;;;;;1.40;1.17;;;16.80;98.00;;;;;;5068862;28;20515;-71
2021/10/05 11:59:28;;;;;;;1.40;1.20;;;16.90;98.00;;;;;;5060681;28;20889;-72
2021/10/05 12:02:00;;;;;;;1.20;1.10;;;16.90;98.00;;;;;;5063230;28;20523;-71
2021/10/05 12:04:28;;;;;;;1.40;1.30;;;16.90;98.00;;;;;;5054493;28;20463;-71
2021/10/05 12:07:00;;;;;;;1.20;1.10;;;16.90;98.00;;;;;;5058738;28;20868;-71
2021/10/05 12:09:29;;;;;;;1.50;1.47;;;17.00;98.00;;;;;;5062420;28;20452;-72
2021/10/05 12:12:06;;;;;;;1.20;1.13;;;16.90;98.00;;;;;;5060453;28;20495;-72
2021/10/05 12:14:38;;;;;;;1.30;1.13;;;16.70;98.00;;;;;;5055927;28;20608;-70
2021/10/05 12:17:10;;;;;;;1.20;1.10;;;16.50;98.00;;;;;;5065106;28;20463;-69
2021/10/05 12:19:39;;;;;;;1.20;1.13;;;16.50;98.00;;;;;;5053698;28;20492;-67
2021/10/05 12:22:09;;;;;;;1.20;1.10;;;16.50;98.00;;;;;;5054236;28;20559;-68
2021/10/05 12:24:44;;;;;;;1.40;1.20;;;16.50;98.00;;;;;;5062310;28;20468;-69
2021/10/05 12:27:17;;;;;;;1.30;1.20;;;16.70;98.00;;;;;;5035965;28;20465;-69
2021/10/05 12:29:55;;;;;;;9.13;1.30;;;16.70;98.00;;;;;;5070128;28;20456;-70
2021/10/05 12:32:34;;;;;;;1.20;1.10;;;16.80;98.00;;;;;;5070449;28;20464;-71
2021/10/05 12:35:01;;;;;;;1.20;1.00;;;16.90;98.00;;;;;;5046251;28;21039;-70
2021/10/05 12:37:31;;;;;;;1.40;1.30;;;16.90;98.00;;;;;;5062818;28;20518;-71
2021/10/05 12:40:01;;;;;;;1.40;1.20;;;17.00;98.00;;;;;;5074034;28;20460;-72
2021/10/05 12:42:43;;;;;;;1.20;1.10;;;17.00;98.00;;;;;;5074765;28;20898;-70
2021/10/05 12:45:13;;;;;;;1.20;1.10;;;16.90;98.00;;;;;;5074613;28;20486;-72
2021/10/05 12:47:50;;;;;;;1.40;1.27;;;16.90;98.00;;;;;;5074889;28;20460;-69
2021/10/05 12:50:19;;;;;;;1.20;1.10;;;17.00;98.00;;;;;;5074440;28;20452;-70
2021/10/05 12:52:53;;;;;;;1.60;1.40;;;17.00;98.00;;;;;;5074686;28;20556;-70
2021/10/05 12:55:20;;;;;;;1.30;1.23;;;17.10;98.00;;;;;;5056713;28;21019;-70
2021/10/05 12:57:48;;;;;;;1.87;1.20;;;17.10;98.00;;;;;;5074793;28;20468;-70